< < Back
Terminal Aerodrome Forecast


Current Version              Previous Versions:   1  2  3  4  5  6  7  8  9  

Terminal Aerodrome Forecast

279
FTUS44 KBMX 011100 RRA
TAFANB
TAF
KANB 011146Z 0112/0212 09005KT 6SM BR OVC015
     FM011300 14005KT 6SM BR OVC010
     FM020500 11003KT 6SM BR OVC007=



Latest METAR

302
SAUS70 KWBC 011200 RRL
MTRANB
METAR KANB 011153Z AUTO 09008KT 10SM OVC019 07/03 A3043 RMK AO2 SLP306
T00720033 10100 20072 50001


USA.gov is the U.S. government's official web portal to all federal, state and local government web resources and services.